Time;durP1;ratioP1;P1;durP2;ratioP2;P2;SDS_P1;SDS_P2;PMS_P1;PMS_P2;Temp;Humidity;BMP_temperature;BMP_pressure;BME280_temperature;BME280_humidity;BME280_pressure;Samples;Min_cycle;Max_cycle;Signal;HPM_P1;HPM_P2
2023/09/23 00:02:10;;;;;;;12.10;11.90;;;15.20;1.00;;;;;;4859150;29;20561;-83
2023/09/23 00:04:38;;;;;;;12.60;12.10;;;15.30;1.00;;;;;;4852000;29;20548;-81
2023/09/23 00:07:22;;;;;;;12.73;12.33;;;15.30;1.00;;;;;;4857185;29;20552;-80
2023/09/23 00:09:55;;;;;;;12.80;12.40;;;15.20;1.00;;;;;;4876711;29;20485;-82
2023/09/23 00:12:25;;;;;;;12.30;12.10;;;15.20;1.00;;;;;;4864661;29;20488;-80
2023/09/23 00:14:54;;;;;;;12.60;12.30;;;15.20;1.00;;;;;;4863028;29;20488;-81
2023/09/23 00:17:27;;;;;;;12.30;12.00;;;15.30;1.00;;;;;;4863940;29;20968;-81
2023/09/23 00:20:14;;;;;;;11.93;11.73;;;15.20;1.00;;;;;;4861194;29;22484;-79
2023/09/23 00:22:56;;;;;;;11.93;11.73;;;15.30;1.00;;;;;;4861448;29;20516;-81
2023/09/23 00:25:25;;;;;;;11.60;11.40;;;15.30;1.00;;;;;;4865233;29;20463;-81
2023/09/23 00:27:56;;;;;;;12.17;11.77;;;15.20;1.00;;;;;;4862206;29;21045;-81
2023/09/23 00:30:26;;;;;;;12.13;11.67;;;15.10;1.00;;;;;;4864872;29;20536;-82
2023/09/23 00:32:59;;;;;;;12.17;11.87;;;15.10;1.00;;;;;;4865092;29;20524;-82
2023/09/23 00:35:28;;;;;;;11.80;11.40;;;15.10;1.00;;;;;;4862115;29;20524;-82
2023/09/23 00:37:57;;;;;;;11.73;11.53;;;15.10;1.00;;;;;;4867040;29;20501;-82
2023/09/23 00:40:29;;;;;;;11.60;11.40;;;15.10;1.00;;;;;;4861044;29;20468;-83
2023/09/23 00:43:11;;;;;;;11.30;11.10;;;15.10;1.00;;;;;;4864758;29;20525;-83
2023/09/23 00:45:45;;;;;;;11.40;11.20;;;15.10;1.00;;;;;;4865079;29;20518;-84
2023/09/23 00:48:14;;;;;;;12.00;11.70;;;15.00;1.00;;;;;;4863819;29;20475;-80
2023/09/23 00:50:43;;;;;;;11.37;11.10;;;15.00;1.00;;;;;;4861308;29;20502;-81
2023/09/23 00:53:12;;;;;;;12.07;11.77;;;15.00;1.00;;;;;;4865594;29;20486;-83
2023/09/23 00:55:43;;;;;;;11.30;11.10;;;14.90;1.00;;;;;;4865790;29;20874;-83
2023/09/23 00:58:14;;;;;;;11.97;11.67;;;14.90;1.00;;;;;;4863573;29;20475;-82
2023/09/23 01:00:43;;;;;;;11.77;11.47;;;14.90;1.00;;;;;;4867743;29;20461;-83
2023/09/23 01:03:11;;;;;;;11.60;11.40;;;14.80;1.00;;;;;;4865228;29;20829;-84
2023/09/23 01:05:40;;;;;;;11.70;11.40;;;14.80;1.00;;;;;;4866409;29;20511;-79
2023/09/23 01:08:20;;;;;;;11.50;11.30;;;14.80;1.00;;;;;;4867301;29;20461;-83
2023/09/23 01:10:49;;;;;;;11.63;11.40;;;14.70;1.00;;;;;;4862241;29;20473;-83
2023/09/23 01:13:21;;;;;;;11.83;11.63;;;14.80;1.00;;;;;;4867820;29;20475;-81
2023/09/23 01:15:49;;;;;;;11.70;11.50;;;14.70;1.00;;;;;;4866235;29;20488;-81
2023/09/23 01:18:17;;;;;;;12.00;11.70;;;14.60;1.00;;;;;;4863385;29;20461;-83
2023/09/23 01:20:54;;;;;;;11.70;11.40;;;14.60;1.00;;;;;;4860644;29;20864;-81
2023/09/23 01:23:24;;;;;;;11.90;11.70;;;14.60;1.00;;;;;;4865172;29;20464;-80
2023/09/23 01:25:53;;;;;;;11.97;11.67;;;14.60;1.00;;;;;;4859008;29;20468;-81
2023/09/23 01:28:21;;;;;;;11.70;11.50;;;14.60;1.00;;;;;;4864107;29;20460;-80
2023/09/23 01:30:50;;;;;;;11.43;11.20;;;14.60;1.00;;;;;;4863817;29;20468;-83
2023/09/23 01:33:18;;;;;;;12.43;12.00;;;14.60;1.00;;;;;;4868539;29;20501;-81
2023/09/23 01:35:48;;;;;;;11.80;11.40;;;14.60;1.00;;;;;;4862785;29;20485;-82
2023/09/23 01:38:16;;;;;;;11.80;11.50;;;14.50;1.00;;;;;;4875074;29;20903;-80
2023/09/23 01:40:47;;;;;;;11.93;11.43;;;14.40;1.00;;;;;;4861699;29;20473;-82
2023/09/23 01:43:15;;;;;;;11.30;11.10;;;14.60;1.00;;;;;;4861678;29;20472;-85
2023/09/23 01:45:44;;;;;;;11.93;11.73;;;14.50;1.00;;;;;;4854096;29;20453;-83
2023/09/23 01:48:12;;;;;;;11.23;11.03;;;14.50;1.00;;;;;;4857915;29;21084;-83
2023/09/23 01:50:41;;;;;;;11.60;11.40;;;14.50;1.00;;;;;;4858288;29;20464;-83
2023/09/23 01:53:14;;;;;;;11.80;11.60;;;14.40;1.00;;;;;;4861923;29;20571;-83
2023/09/23 01:55:42;;;;;;;12.30;12.10;;;14.40;1.00;;;;;;4859065;29;20489;-81
2023/09/23 01:58:14;;;;;;;12.07;11.77;;;14.40;1.00;;;;;;4861331;29;21142;-83
2023/09/23 02:00:42;;;;;;;11.70;11.40;;;14.30;1.00;;;;;;4857897;29;20561;-82
2023/09/23 02:03:11;;;;;;;11.70;11.50;;;14.30;1.00;;;;;;4864008;29;20473;-83
2023/09/23 02:05:39;;;;;;;11.90;11.70;;;14.40;1.00;;;;;;4859338;29;20451;-83
2023/09/23 02:08:07;;;;;;;11.60;11.40;;;14.40;1.00;;;;;;4861182;29;20552;-84
2023/09/23 02:10:36;;;;;;;11.87;11.57;;;14.50;1.00;;;;;;4865343;29;20469;-82
2023/09/23 02:13:05;;;;;;;11.73;11.43;;;14.40;1.00;;;;;;4858015;29;20557;-84
2023/09/23 02:15:36;;;;;;;12.03;11.73;;;14.40;1.00;;;;;;4862820;29;21006;-81
2023/09/23 02:18:06;;;;;;;11.50;11.30;;;14.50;1.00;;;;;;4859017;29;20465;-83
2023/09/23 02:20:35;;;;;;;11.50;11.30;;;14.50;1.00;;;;;;4857642;29;20485;-81
2023/09/23 02:23:05;;;;;;;11.73;11.37;;;14.40;1.00;;;;;;4858804;29;20552;-83
2023/09/23 02:25:34;;;;;;;11.43;11.23;;;14.50;1.00;;;;;;4860662;29;20875;-83
2023/09/23 02:28:02;;;;;;;11.83;11.60;;;14.30;1.00;;;;;;4858204;29;20561;-82
2023/09/23 02:30:33;;;;;;;11.77;11.47;;;14.30;1.00;;;;;;4851071;29;20468;-82
2023/09/23 02:33:04;;;;;;;11.40;11.20;;;14.30;1.00;;;;;;4853199;29;20537;-82
2023/09/23 02:35:33;;;;;;;11.00;10.80;;;14.40;1.00;;;;;;4852488;29;20556;-81
2023/09/23 02:38:03;;;;;;;11.60;11.37;;;14.40;1.00;;;;;;4859326;29;20580;-83
2023/09/23 02:40:32;;;;;;;11.40;11.20;;;14.40;1.00;;;;;;4858079;29;20467;-83
2023/09/23 02:43:01;;;;;;;11.57;11.37;;;14.30;1.00;;;;;;4857025;29;20483;-84
2023/09/23 02:45:31;;;;;;;11.10;10.90;;;14.20;1.00;;;;;;4870717;29;20547;-84
2023/09/23 02:48:00;;;;;;;11.33;11.03;;;14.20;1.00;;;;;;4860368;29;20453;-82
2023/09/23 02:50:30;;;;;;;11.60;11.40;;;14.20;1.00;;;;;;4871141;29;20465;-82
2023/09/23 02:52:59;;;;;;;11.60;11.40;;;14.20;1.00;;;;;;4857352;29;20495;-79
2023/09/23 02:55:27;;;;;;;11.80;11.40;;;14.20;1.00;;;;;;4858971;29;21048;-82
2023/09/23 02:57:55;;;;;;;11.90;11.60;;;14.20;1.00;;;;;;4858974;29;20450;-80
2023/09/23 03:00:29;;;;;;;11.70;11.40;;;14.20;1.00;;;;;;4860390;29;20457;-80
2023/09/23 03:02:59;;;;;;;11.70;11.40;;;14.20;1.00;;;;;;4857199;29;20489;-81
2023/09/23 03:05:30;;;;;;;11.50;11.30;;;14.10;1.00;;;;;;4859448;29;20449;-83
2023/09/23 03:07:59;;;;;;;11.63;11.33;;;14.10;1.00;;;;;;4856879;29;20465;-80
2023/09/23 03:10:34;;;;;;;11.30;11.10;;;14.10;1.00;;;;;;4856997;29;20533;-80
2023/09/23 03:13:04;;;;;;;11.10;10.90;;;14.10;1.00;;;;;;4861941;29;21065;-82
2023/09/23 03:15:39;;;;;;;11.33;11.13;;;14.10;1.00;;;;;;4858200;29;21025;-83
2023/09/23 03:18:07;;;;;;;11.53;11.33;;;14.10;1.00;;;;;;4852785;29;20457;-83
2023/09/23 03:20:40;;;;;;;11.60;11.40;;;14.10;1.00;;;;;;4859003;29;20457;-82
2023/09/23 03:23:10;;;;;;;11.67;11.47;;;14.10;1.00;;;;;;4857303;29;20473;-83
2023/09/23 03:25:49;;;;;;;11.50;11.20;;;14.10;1.00;;;;;;4856723;29;20465;-84
2023/09/23 03:28:21;;;;;;;11.60;11.30;;;14.00;1.00;;;;;;4859187;29;20519;-81
2023/09/23 03:30:49;;;;;;;11.70;11.50;;;14.00;1.00;;;;;;4854975;29;20963;-78
2023/09/23 03:33:19;;;;;;;11.17;10.97;;;13.90;1.00;;;;;;4870699;29;21365;-81
2023/09/23 03:35:49;;;;;;;11.70;11.40;;;13.90;1.00;;;;;;4857146;29;20494;-83
2023/09/23 03:38:18;;;;;;;11.97;11.67;;;13.80;1.00;;;;;;4858734;29;20461;-79
2023/09/23 03:40:53;;;;;;;11.60;11.30;;;13.80;1.00;;;;;;4854577;29;20493;-80
2023/09/23 03:43:22;;;;;;;12.20;11.93;;;13.70;1.00;;;;;;4855953;29;20464;-81
2023/09/23 03:45:51;;;;;;;12.00;11.70;;;13.70;1.00;;;;;;4860130;29;20808;-81
2023/09/23 03:48:20;;;;;;;11.67;11.47;;;13.70;1.00;;;;;;4857487;29;20465;-83
2023/09/23 03:50:53;;;;;;;11.80;11.50;;;13.70;1.00;;;;;;4858974;29;21022;-82
2023/09/23 03:53:22;;;;;;;11.23;10.93;;;13.60;1.00;;;;;;4857435;29;20509;-82
2023/09/23 03:55:54;;;;;;;11.10;10.90;;;13.60;1.00;;;;;;4856707;29;20468;-82
2023/09/23 03:58:24;;;;;;;11.63;11.23;;;13.60;1.00;;;;;;4860401;29;20467;-83
2023/09/23 04:00:54;;;;;;;11.20;11.00;;;13.60;1.00;;;;;;4851201;29;22328;-82
2023/09/23 04:03:23;;;;;;;10.80;10.60;;;13.70;1.00;;;;;;4855653;29;20468;-79
2023/09/23 04:05:57;;;;;;;10.80;10.60;;;13.70;1.00;;;;;;4856323;29;20489;-83
2023/09/23 04:08:27;;;;;;;11.00;10.80;;;13.70;1.00;;;;;;4861960;29;20492;-81
2023/09/23 04:10:55;;;;;;;11.20;11.00;;;13.70;1.00;;;;;;4861342;29;20955;-83
2023/09/23 04:13:25;;;;;;;10.80;10.60;;;13.70;1.00;;;;;;4860010;29;20547;-84
2023/09/23 04:16:00;;;;;;;11.50;11.20;;;13.70;1.00;;;;;;4861135;29;20460;-83
2023/09/23 04:18:28;;;;;;;11.27;10.97;;;13.60;1.00;;;;;;4856078;29;21444;-83
2023/09/23 04:21:00;;;;;;;10.90;10.70;;;13.60;1.00;;;;;;4855911;29;20513;-82
2023/09/23 04:23:29;;;;;;;11.70;11.07;;;13.50;1.00;;;;;;4859054;29;20531;-80
2023/09/23 04:25:57;;;;;;;11.00;10.80;;;13.50;1.00;;;;;;4858085;29;20462;-83
2023/09/23 04:28:26;;;;;;;10.80;10.60;;;13.50;1.00;;;;;;4856343;29;20468;-83
2023/09/23 04:30:54;;;;;;;10.97;10.67;;;13.50;1.00;;;;;;4860790;29;20955;-83
2023/09/23 04:33:23;;;;;;;10.87;10.67;;;13.40;1.00;;;;;;4857182;29;20532;-82
2023/09/23 04:35:52;;;;;;;11.40;11.10;;;13.50;1.00;;;;;;4857042;29;20513;-81
2023/09/23 04:38:22;;;;;;;10.77;10.47;;;13.50;1.00;;;;;;4851488;29;20580;-83
2023/09/23 04:40:50;;;;;;;10.73;10.53;;;13.40;1.00;;;;;;4855619;29;20461;-83
2023/09/23 04:43:19;;;;;;;10.87;10.57;;;13.40;1.00;;;;;;4857948;29;20503;-83
2023/09/23 04:45:48;;;;;;;10.93;10.63;;;13.50;1.00;;;;;;4858713;29;20477;-82
2023/09/23 04:48:20;;;;;;;11.23;10.83;;;13.40;1.00;;;;;;4858004;29;20472;-83
2023/09/23 04:50:49;;;;;;;10.80;10.60;;;13.40;1.00;;;;;;4853076;29;20458;-84
2023/09/23 04:53:17;;;;;;;10.63;10.43;;;13.50;1.00;;;;;;4858528;29;20468;-83
2023/09/23 04:55:47;;;;;;;10.70;10.50;;;13.40;1.00;;;;;;4860094;29;20513;-83
2023/09/23 04:58:15;;;;;;;10.90;10.70;;;13.40;1.00;;;;;;4862590;29;20476;-82
2023/09/23 05:00:44;;;;;;;10.87;10.57;;;13.50;1.00;;;;;;4863958;29;20461;-85
2023/09/23 05:03:12;;;;;;;10.80;10.60;;;13.50;1.00;;;;;;4854426;29;20990;-84
2023/09/23 05:05:40;;;;;;;11.07;10.87;;;13.40;1.00;;;;;;4858576;29;20457;-81
2023/09/23 05:08:09;;;;;;;10.80;10.60;;;13.50;1.00;;;;;;4865402;29;20449;-83
2023/09/23 05:10:39;;;;;;;11.30;11.00;;;13.40;1.00;;;;;;4863554;29;20468;-82
2023/09/23 05:13:10;;;;;;;11.23;10.93;;;13.40;1.00;;;;;;4863257;29;21043;-83
2023/09/23 05:15:38;;;;;;;11.60;11.30;;;13.30;1.00;;;;;;4859467;29;20512;-84
2023/09/23 05:18:08;;;;;;;12.00;11.70;;;13.40;1.00;;;;;;4853860;29;20605;-84
2023/09/23 05:20:37;;;;;;;11.23;11.03;;;13.30;1.00;;;;;;4861099;29;20475;-82
2023/09/23 05:23:06;;;;;;;11.27;10.93;;;13.30;1.00;;;;;;4860742;29;20485;-84
2023/09/23 05:25:40;;;;;;;11.17;10.97;;;13.30;1.00;;;;;;4859894;29;20493;-83
2023/09/23 05:28:10;;;;;;;11.20;11.00;;;13.40;1.00;;;;;;4859866;29;20457;-81
2023/09/23 05:30:41;;;;;;;11.10;10.90;;;13.40;1.00;;;;;;4863717;29;20505;-85
2023/09/23 05:33:14;;;;;;;11.53;11.23;;;13.50;1.00;;;;;;4863655;29;20448;-83
2023/09/23 05:35:42;;;;;;;11.27;11.00;;;13.40;1.00;;;;;;4857665;29;20549;-83
2023/09/23 05:38:13;;;;;;;11.60;11.40;;;13.40;1.00;;;;;;4860684;29;20530;-82
2023/09/23 05:40:41;;;;;;;11.10;10.90;;;13.30;1.00;;;;;;4862159;29;20513;-80
2023/09/23 05:43:11;;;;;;;11.17;10.90;;;13.50;1.00;;;;;;4862458;29;20541;-79
2023/09/23 05:45:39;;;;;;;11.60;11.20;;;13.40;1.00;;;;;;4863978;29;20503;-84
2023/09/23 05:48:09;;;;;;;11.20;11.00;;;13.40;1.00;;;;;;4854528;29;20505;-83
2023/09/23 05:50:38;;;;;;;11.23;11.03;;;13.50;1.00;;;;;;4855556;29;20463;-83
2023/09/23 05:53:06;;;;;;;11.60;11.30;;;13.50;1.00;;;;;;4861349;29;20584;-81
2023/09/23 05:55:35;;;;;;;11.10;10.90;;;13.50;1.00;;;;;;4861820;29;20712;-83
2023/09/23 05:58:03;;;;;;;11.33;11.13;;;13.50;1.00;;;;;;4861791;29;20535;-84
2023/09/23 06:00:33;;;;;;;11.00;10.80;;;13.50;1.00;;;;;;4859217;29;20469;-83
2023/09/23 06:03:01;;;;;;;11.10;10.90;;;13.50;1.00;;;;;;4859624;29;20537;-81
2023/09/23 06:05:29;;;;;;;11.30;11.10;;;13.40;1.00;;;;;;4859053;29;20497;-80
2023/09/23 06:07:57;;;;;;;11.10;10.80;;;13.40;1.00;;;;;;4862177;29;20457;-81
2023/09/23 06:10:26;;;;;;;11.17;10.97;;;13.50;1.00;;;;;;4862650;29;20461;-81
2023/09/23 06:12:54;;;;;;;11.17;10.97;;;13.50;1.00;;;;;;4861405;29;20563;-82
2023/09/23 06:15:22;;;;;;;11.20;10.90;;;13.40;1.00;;;;;;4859236;29;20469;-83
2023/09/23 06:17:52;;;;;;;11.53;11.23;;;13.40;1.00;;;;;;4857582;29;20488;-83
2023/09/23 06:20:20;;;;;;;11.40;10.87;;;13.50;26.30;;;;;;4861466;29;20465;-81
2023/09/23 06:22:49;;;;;;;11.00;10.80;;;13.50;1.00;;;;;;4857614;29;20535;-80
2023/09/23 06:25:18;;;;;;;11.40;11.00;;;13.60;1.00;;;;;;4873949;29;20564;-81
2023/09/23 06:27:46;;;;;;;11.20;11.00;;;13.60;1.00;;;;;;4858318;29;20546;-84
2023/09/23 06:30:15;;;;;;;11.63;11.30;;;13.60;1.00;;;;;;4857106;29;20871;-81
2023/09/23 06:32:44;;;;;;;11.20;11.00;;;13.60;1.00;;;;;;4860826;29;20481;-84
2023/09/23 06:35:15;;;;;;;11.67;11.37;;;13.70;1.00;;;;;;4862575;29;20462;-83
2023/09/23 06:37:47;;;;;;;12.00;11.70;;;13.80;1.00;;;;;;4876053;29;20480;-83
2023/09/23 06:40:15;;;;;;;11.80;11.60;;;13.80;1.00;;;;;;4865726;29;20447;-80
2023/09/23 06:42:46;;;;;;;11.23;11.03;;;14.00;1.00;;;;;;4864219;29;20483;-82
2023/09/23 06:45:14;;;;;;;11.60;11.20;;;13.90;1.00;;;;;;4857582;29;20477;-84
2023/09/23 06:47:43;;;;;;;11.50;11.20;;;14.00;1.00;;;;;;4861729;29;20470;-82
2023/09/23 06:50:11;;;;;;;12.20;11.90;;;14.00;1.00;;;;;;4854250;29;20525;-74
2023/09/23 06:52:42;;;;;;;12.60;12.13;;;14.10;1.00;;;;;;4850530;29;20500;-74
2023/09/23 06:55:10;;;;;;;12.17;11.70;;;14.20;1.00;;;;;;4844092;29;20831;-73
2023/09/23 06:57:38;;;;;;;12.10;11.80;;;14.30;1.00;;;;;;4845267;29;20485;-74
2023/09/23 07:00:08;;;;;;;12.43;12.13;;;14.30;1.00;;;;;;4845833;29;20636;-73
2023/09/23 07:02:36;;;;;;;12.23;11.93;;;14.20;1.00;;;;;;4845092;29;20950;-74
2023/09/23 07:05:05;;;;;;;12.10;11.70;;;14.20;99.90;;;;;;4851224;29;20602;-73
2023/09/23 07:07:33;;;;;;;12.10;11.80;;;14.20;99.90;;;;;;4851354;29;20470;-73
2023/09/23 07:10:04;;;;;;;12.10;11.80;;;14.20;44.30;;;;;;4850182;29;20469;-71
2023/09/23 07:12:32;;;;;;;12.83;12.47;;;14.20;63.00;;;;;;4845619;29;20503;-72
2023/09/23 07:15:00;;;;;;;12.00;11.80;;;14.30;25.40;;;;;;4849418;29;20489;-74
2023/09/23 07:17:28;;;;;;;11.70;11.47;;;14.40;57.00;;;;;;4847709;29;20457;-72
2023/09/23 07:19:56;;;;;;;12.47;12.17;;;14.30;35.70;;;;;;4846775;29;20544;-73
2023/09/23 07:22:25;;;;;;;12.60;12.20;;;14.30;15.30;;;;;;4849614;29;21174;-75
2023/09/23 07:24:53;;;;;;;12.20;12.00;;;14.40;1.00;;;;;;4853070;29;20999;-82
2023/09/23 07:27:24;;;;;;;13.27;12.53;;;14.40;1.00;;;;;;4859991;29;20560;-84
2023/09/23 07:29:53;;;;;;;12.50;12.20;;;14.40;1.00;;;;;;4855808;29;21050;-82
2023/09/23 07:32:21;;;;;;;12.70;12.40;;;14.60;1.00;;;;;;4855265;29;20485;-79
2023/09/23 07:34:49;;;;;;;12.60;12.30;;;14.60;1.00;;;;;;4860464;29;20460;-84
2023/09/23 07:37:18;;;;;;;12.63;12.27;;;14.70;1.00;;;;;;4851284;29;20480;-82
2023/09/23 07:39:46;;;;;;;12.83;12.53;;;14.90;1.00;;;;;;4852378;29;20486;-81
2023/09/23 07:42:14;;;;;;;13.63;13.23;;;15.10;1.00;;;;;;4860023;29;20477;-81
2023/09/23 07:44:44;;;;;;;12.70;12.40;;;15.30;1.00;;;;;;4853762;29;20471;-82
2023/09/23 07:47:12;;;;;;;13.30;12.90;;;15.50;1.00;;;;;;4855003;29;20460;-80
2023/09/23 07:49:40;;;;;;;13.00;12.70;;;15.70;1.00;;;;;;4857415;29;20975;-85
2023/09/23 07:52:09;;;;;;;12.90;12.60;;;15.80;1.00;;;;;;4855231;29;20585;-81
2023/09/23 07:54:38;;;;;;;12.80;12.50;;;15.80;99.90;;;;;;4854102;29;20468;-85
2023/09/23 07:57:06;;;;;;;12.90;12.60;;;15.90;99.90;;;;;;4872574;29;20983;-82
2023/09/23 07:59:35;;;;;;;13.10;12.80;;;16.00;99.90;;;;;;4857895;29;20497;-81
2023/09/23 08:02:06;;;;;;;14.20;13.70;;;16.00;99.90;;;;;;4855569;29;20516;-82
2023/09/23 08:04:41;;;;;;;12.80;12.50;;;16.10;99.90;;;;;;4855524;29;20469;-83
2023/09/23 08:07:11;;;;;;;13.23;12.93;;;16.20;99.90;;;;;;4859059;29;20457;-82
2023/09/23 08:09:40;;;;;;;13.40;13.00;;;16.50;99.90;;;;;;4858022;29;20465;-83
2023/09/23 08:12:23;;;;;;;13.60;13.20;;;16.80;99.90;;;;;;4859895;29;20481;-83
2023/09/23 08:14:53;;;;;;;13.40;13.10;;;17.20;99.90;;;;;;4876664;29;20464;-84
2023/09/23 08:17:32;;;;;;;12.97;12.63;;;17.20;99.90;;;;;;4862752;29;20512;-83
2023/09/23 08:20:17;;;;;;;14.17;13.67;;;17.20;99.90;;;;;;4860617;29;20986;-81
2023/09/23 08:22:46;;;;;;;13.23;12.93;;;17.40;99.90;;;;;;4864613;29;20477;-78
2023/09/23 08:25:15;;;;;;;14.40;14.00;;;17.70;99.90;;;;;;4850057;29;20455;-79
2023/09/23 08:27:43;;;;;;;13.57;13.27;;;18.00;99.90;;;;;;4850345;29;20667;-75
2023/09/23 08:30:12;;;;;;;14.00;13.63;;;18.30;99.90;;;;;;4856354;29;20461;-76
2023/09/23 08:32:42;;;;;;;14.07;13.77;;;18.50;99.90;;;;;;4856701;29;20484;-79
2023/09/23 08:35:10;;;;;;;13.83;13.50;;;18.80;99.90;;;;;;4857972;29;20453;-78
2023/09/23 08:37:39;;;;;;;13.60;13.20;;;19.10;99.90;;;;;;4870057;29;20470;-78
2023/09/23 08:40:10;;;;;;;13.23;12.93;;;19.10;99.90;;;;;;4855480;29;20488;-77
2023/09/23 08:42:39;;;;;;;13.57;13.17;;;19.10;99.90;;;;;;4856088;29;20549;-78
2023/09/23 08:45:09;;;;;;;13.70;13.40;;;19.60;99.90;;;;;;4853480;29;20461;-79
2023/09/23 08:47:38;;;;;;;13.40;13.00;;;19.80;99.90;;;;;;4855159;29;20849;-79
2023/09/23 08:50:09;;;;;;;14.40;13.93;;;19.80;99.90;;;;;;4845181;29;20500;-79
2023/09/23 08:52:38;;;;;;;13.60;13.30;;;20.10;99.90;;;;;;4854896;29;21148;-79
2023/09/23 08:55:08;;;;;;;13.63;13.23;;;20.10;99.90;;;;;;4851542;29;20456;-81
2023/09/23 08:57:36;;;;;;;14.07;13.63;;;20.10;99.90;;;;;;4855612;29;20465;-78
2023/09/23 09:00:08;;;;;;;14.17;13.77;;;20.50;99.90;;;;;;4858115;29;20615;-79
2023/09/23 09:02:36;;;;;;;14.57;14.07;;;20.80;99.90;;;;;;4853858;29;20533;-78
2023/09/23 09:05:05;;;;;;;13.87;13.57;;;21.30;99.90;;;;;;4855435;29;20453;-79
2023/09/23 09:07:36;;;;;;;14.20;13.80;;;21.60;99.90;;;;;;4849542;29;20463;-78
2023/09/23 09:10:06;;;;;;;13.90;13.60;;;21.80;99.90;;;;;;4858619;29;20552;-76
2023/09/23 09:12:35;;;;;;;14.37;13.97;;;22.00;99.90;;;;;;4849318;29;20488;-80
2023/09/23 09:15:03;;;;;;;14.27;13.87;;;22.10;99.90;;;;;;4855088;29;20471;-80
2023/09/23 09:17:33;;;;;;;14.17;13.63;;;22.50;99.90;;;;;;4853088;29;20552;-80
2023/09/23 09:20:06;;;;;;;13.63;13.23;;;22.80;99.90;;;;;;4854984;29;20489;-81
2023/09/23 09:22:36;;;;;;;13.77;13.40;;;23.20;99.90;;;;;;4856320;29;21034;-80
2023/09/23 09:25:05;;;;;;;13.90;13.40;;;23.50;99.90;;;;;;4854685;29;20460;-78
2023/09/23 09:27:35;;;;;;;14.18;13.68;;;23.70;99.90;;;;;;4857032;29;20471;-82
2023/09/23 09:30:11;;;;;;;13.73;13.40;;;23.80;99.90;;;;;;4857588;29;20468;-83
2023/09/23 09:32:43;;;;;;;13.60;13.20;;;23.40;99.90;;;;;;4854441;29;20480;-84
2023/09/23 09:35:14;;;;;;;13.40;13.00;;;23.20;99.90;;;;;;4860422;29;20457;-86
2023/09/23 09:37:45;;;;;;;13.70;13.30;;;23.60;99.90;;;;;;4867477;29;20477;-85
2023/09/23 09:40:19;;;;;;;13.40;13.00;;;23.80;99.90;;;;;;4864301;29;20480;-86
2023/09/23 09:42:53;;;;;;;13.10;12.70;;;23.60;99.90;;;;;;4863732;29;20489;-84
2023/09/23 09:45:23;;;;;;;13.27;12.87;;;23.60;99.90;;;;;;4866292;29;20481;-85
2023/09/23 09:47:57;;;;;;;13.00;12.70;;;23.70;99.90;;;;;;4866223;29;20959;-83
2023/09/23 09:50:27;;;;;;;12.87;12.40;;;23.70;99.90;;;;;;4865165;29;20453;-87
2023/09/23 09:52:57;;;;;;;13.33;12.83;;;23.30;99.90;;;;;;4865370;29;20564;-82
2023/09/23 09:55:25;;;;;;;12.93;12.53;;;22.40;99.90;;;;;;4862221;29;20525;-82
2023/09/23 09:57:54;;;;;;;13.20;12.70;;;21.50;99.90;;;;;;4861783;29;20493;-83
2023/09/23 10:00:27;;;;;;;12.90;12.60;;;20.90;99.90;;;;;;4865846;29;20484;-84
2023/09/23 10:03:01;;;;;;;13.17;12.63;;;20.80;99.90;;;;;;4867859;29;21017;-86
2023/09/23 10:05:33;;;;;;;12.50;12.10;;;21.00;99.90;;;;;;4867060;29;21114;-82
2023/09/23 10:08:12;;;;;;;12.40;12.10;;;21.00;99.90;;;;;;4862864;29;20465;-82
2023/09/23 10:10:47;;;;;;;12.73;12.10;;;20.90;99.90;;;;;;4864549;29;20469;-84
2023/09/23 10:13:17;;;;;;;12.60;12.30;;;20.80;99.90;;;;;;4863157;29;20449;-83
2023/09/23 10:15:45;;;;;;;14.03;13.47;;;20.40;99.90;;;;;;4866775;29;20520;-83
2023/09/23 10:18:15;;;;;;;12.77;12.37;;;20.40;99.90;;;;;;4865429;29;20503;-83
2023/09/23 10:20:49;;;;;;;12.10;11.80;;;20.70;99.90;;;;;;4867161;29;20545;-84
2023/09/23 10:23:20;;;;;;;12.03;11.73;;;20.80;99.90;;;;;;4864843;29;20480;-85
2023/09/23 10:25:50;;;;;;;11.93;11.63;;;20.90;99.90;;;;;;4861360;29;20460;-83
2023/09/23 10:28:21;;;;;;;11.17;10.87;;;20.80;99.90;;;;;;4862721;29;20609;-81
2023/09/23 10:31:03;;;;;;;11.50;11.10;;;20.70;99.90;;;;;;4860434;29;20556;-85
2023/09/23 10:33:34;;;;;;;11.53;11.23;;;20.60;99.90;;;;;;4864062;29;20532;-87
2023/09/23 10:36:04;;;;;;;11.80;11.43;;;20.70;99.90;;;;;;4865086;29;20465;-82
2023/09/23 10:38:37;;;;;;;11.20;10.90;;;20.60;99.90;;;;;;4862150;29;20461;-83
2023/09/23 10:41:05;;;;;;;10.90;10.70;;;20.80;99.90;;;;;;4865743;29;20481;-83
2023/09/23 10:43:34;;;;;;;12.00;11.70;;;20.90;99.90;;;;;;4879670;29;20465;-84
2023/09/23 10:46:02;;;;;;;11.90;11.60;;;20.90;99.90;;;;;;4864266;29;20470;-81
2023/09/23 10:48:31;;;;;;;12.40;11.83;;;21.10;99.90;;;;;;4863722;29;20493;-82
2023/09/23 10:51:00;;;;;;;11.80;11.60;;;21.10;99.90;;;;;;4864495;29;20541;-80
2023/09/23 10:53:29;;;;;;;11.57;11.27;;;21.10;99.90;;;;;;4864211;29;20486;-83
2023/09/23 10:56:01;;;;;;;12.17;11.77;;;21.20;99.90;;;;;;4864639;29;20457;-83
2023/09/23 10:58:31;;;;;;;11.30;10.90;;;21.00;99.90;;;;;;4861856;29;20465;-82
2023/09/23 11:00:59;;;;;;;11.93;11.53;;;21.10;99.90;;;;;;4865995;29;20484;-83
2023/09/23 11:03:28;;;;;;;11.60;11.40;;;21.00;99.90;;;;;;4863932;29;20464;-83
2023/09/23 11:05:56;;;;;;;11.53;11.13;;;21.00;99.90;;;;;;4866267;29;20464;-83
2023/09/23 11:08:24;;;;;;;11.73;11.33;;;20.90;99.90;;;;;;4868952;29;20465;-83
2023/09/23 11:10:53;;;;;;;11.47;11.17;;;20.80;99.90;;;;;;4864922;29;20559;-86
2023/09/23 11:13:23;;;;;;;11.87;11.57;;;20.70;99.90;;;;;;4864377;29;20453;-84
2023/09/23 11:15:51;;;;;;;11.50;11.20;;;20.70;99.90;;;;;;4861811;29;20508;-85
2023/09/23 11:18:19;;;;;;;12.00;11.60;;;20.70;99.90;;;;;;4859466;29;20465;-85
2023/09/23 11:20:48;;;;;;;11.20;10.90;;;20.80;99.90;;;;;;4859130;29;20481;-86
2023/09/23 11:23:18;;;;;;;11.87;11.27;;;20.80;99.90;;;;;;4854906;29;20459;-84
2023/09/23 11:25:47;;;;;;;11.47;11.17;;;20.70;99.90;;;;;;4861656;29;20453;-83
2023/09/23 11:28:17;;;;;;;11.50;11.20;;;20.70;99.90;;;;;;4864325;29;20456;-83
2023/09/23 11:30:47;;;;;;;11.67;11.37;;;20.80;99.90;;;;;;4862423;29;20552;-85
2023/09/23 11:33:16;;;;;;;11.50;11.20;;;20.90;99.90;;;;;;4866840;29;20474;-87
2023/09/23 11:35:45;;;;;;;12.00;11.67;;;20.90;99.90;;;;;;4859444;29;20460;-83
2023/09/23 11:38:14;;;;;;;11.67;11.37;;;21.00;99.90;;;;;;4863017;29;20519;-84
2023/09/23 11:40:42;;;;;;;11.60;11.40;;;21.10;99.90;;;;;;4866444;29;20514;-82
2023/09/23 11:43:11;;;;;;;11.67;11.37;;;21.10;99.90;;;;;;4866565;29;21052;-83
2023/09/23 11:45:39;;;;;;;11.47;11.27;;;20.80;99.90;;;;;;4863634;29;20562;-83
2023/09/23 11:48:09;;;;;;;11.20;11.00;;;20.80;99.90;;;;;;4861028;29;20520;-84
2023/09/23 11:50:38;;;;;;;11.87;11.50;;;20.50;99.90;;;;;;4866148;29;20450;-86
2023/09/23 11:53:07;;;;;;;12.00;11.63;;;20.60;99.90;;;;;;4861942;29;20489;-83
2023/09/23 11:55:35;;;;;;;10.97;10.67;;;20.80;99.90;;;;;;4865923;29;20857;-83
2023/09/23 11:58:04;;;;;;;10.90;10.60;;;20.90;99.90;;;;;;4863636;29;20462;-84
2023/09/23 12:00:34;;;;;;;11.60;11.10;;;20.70;99.90;;;;;;4864355;29;20979;-84
2023/09/23 12:03:03;;;;;;;11.80;11.50;;;20.60;99.90;;;;;;4865593;29;20482;-83
2023/09/23 12:05:33;;;;;;;11.47;11.17;;;20.50;99.90;;;;;;4865757;29;20476;-82
2023/09/23 12:08:01;;;;;;;11.10;10.60;;;20.50;99.90;;;;;;4861229;29;20465;-85
2023/09/23 12:10:30;;;;;;;10.80;10.50;;;20.30;99.90;;;;;;4875866;29;20465;-83
2023/09/23 12:13:02;;;;;;;10.17;9.93;;;20.30;99.90;;;;;;4862818;29;20480;-82
2023/09/23 12:15:33;;;;;;;10.23;9.93;;;20.30;99.90;;;;;;4860920;29;20466;-83
2023/09/23 12:18:02;;;;;;;10.40;10.10;;;20.20;99.90;;;;;;4858984;29;20449;-83
2023/09/23 12:20:31;;;;;;;10.60;10.13;;;20.20;99.90;;;;;;4861820;29;21058;-83
2023/09/23 12:23:01;;;;;;;10.60;10.30;;;20.10;99.90;;;;;;4859691;29;20488;-82
2023/09/23 12:25:30;;;;;;;10.80;10.50;;;20.00;99.90;;;;;;4860073;29;20457;-83
2023/09/23 12:27:58;;;;;;;10.60;10.20;;;20.00;99.90;;;;;;4859585;29;20477;-82
2023/09/23 12:30:26;;;;;;;10.47;10.27;;;20.00;99.90;;;;;;4860629;29;20979;-82
2023/09/23 12:32:55;;;;;;;9.90;9.70;;;19.90;99.90;;;;;;4861845;29;20502;-82
2023/09/23 12:35:23;;;;;;;9.90;9.60;;;19.80;99.90;;;;;;4875775;29;20501;-82
2023/09/23 12:37:51;;;;;;;8.90;8.60;;;19.90;99.90;;;;;;4853312;29;20514;-87
2023/09/23 12:40:21;;;;;;;9.37;9.00;;;20.00;99.90;;;;;;4856945;29;20513;-87
2023/09/23 12:42:49;;;;;;;8.73;8.53;;;20.20;99.90;;;;;;4858785;29;20540;-84
2023/09/23 12:45:17;;;;;;;9.07;8.67;;;20.20;99.90;;;;;;4862068;29;20452;-82
2023/09/23 12:47:45;;;;;;;8.50;8.30;;;20.30;99.90;;;;;;4857230;29;20481;-84